Time;durP1;ratioP1;P1;durP2;ratioP2;P2;SDS_P1;SDS_P2;PMS_P1;PMS_P2;Temp;Humidity;BMP_temperature;BMP_pressure;BME280_temperature;BME280_humidity;BME280_pressure;Samples;Min_cycle;Max_cycle;Signal;HPM_P1;HPM_P2
2022/07/04 00:00:53;;;;;;;3.27;3.17;;;24.30;99.90;;;;;;5073231;28;20475;-58
2022/07/04 00:03:19;;;;;;;3.70;3.40;;;24.40;99.90;;;;;;5073215;28;20455;-57
2022/07/04 00:05:47;;;;;;;3.50;3.40;;;24.40;99.90;;;;;;5073105;28;20598;-57
2022/07/04 00:08:13;;;;;;;5.97;3.70;;;24.40;99.90;;;;;;5072532;28;20473;-57
2022/07/04 00:10:40;;;;;;;3.47;3.27;;;24.30;99.90;;;;;;5072901;28;20457;-58
2022/07/04 00:13:08;;;;;;;3.37;3.17;;;24.20;99.90;;;;;;5073095;28;20448;-57
2022/07/04 00:15:35;;;;;;;2.90;2.63;;;23.80;99.90;;;;;;5073062;28;20447;-57
2022/07/04 00:18:01;;;;;;;3.53;3.33;;;23.80;99.90;;;;;;5072969;28;21052;-57
2022/07/04 00:20:28;;;;;;;3.30;3.10;;;23.80;99.90;;;;;;5072762;28;20471;-58
2022/07/04 00:22:55;;;;;;;4.20;2.70;;;23.60;99.90;;;;;;5073173;28;20798;-58
2022/07/04 00:25:22;;;;;;;2.97;2.80;;;23.60;99.90;;;;;;5072843;28;20950;-57
2022/07/04 00:27:48;;;;;;;2.93;2.73;;;23.20;99.90;;;;;;5072941;28;20445;-58
2022/07/04 00:30:16;;;;;;;3.00;2.80;;;23.10;99.90;;;;;;5072867;28;20454;-57
2022/07/04 00:32:42;;;;;;;2.60;2.50;;;22.90;99.90;;;;;;5072982;28;20986;-57
2022/07/04 00:35:09;;;;;;;2.57;2.47;;;22.90;99.90;;;;;;5072752;28;21056;-58
2022/07/04 00:37:36;;;;;;;2.77;2.57;;;22.70;99.90;;;;;;5072950;28;20447;-56
2022/07/04 00:40:02;;;;;;;3.23;2.23;;;22.60;99.90;;;;;;5073004;28;20807;-58
2022/07/04 00:42:29;;;;;;;2.57;2.37;;;22.60;99.90;;;;;;5072756;28;20483;-57
2022/07/04 00:44:55;;;;;;;2.20;2.10;;;22.60;99.90;;;;;;5072738;28;20542;-56
2022/07/04 00:47:23;;;;;;;2.30;2.20;;;22.50;99.90;;;;;;5072737;28;20941;-57
2022/07/04 00:49:49;;;;;;;2.03;1.93;;;22.50;99.90;;;;;;5072826;28;20960;-57
2022/07/04 00:52:17;;;;;;;2.50;2.30;;;22.50;99.90;;;;;;5073064;28;20546;-58
2022/07/04 00:54:46;;;;;;;2.47;2.37;;;22.40;99.90;;;;;;5072768;28;20543;-58
2022/07/04 00:57:12;;;;;;;2.23;2.13;;;22.40;99.90;;;;;;5072598;28;20476;-57
2022/07/04 00:59:39;;;;;;;2.23;2.13;;;22.30;99.90;;;;;;5072692;28;20447;-57
2022/07/04 01:02:06;;;;;;;2.50;2.30;;;22.30;99.90;;;;;;5072343;28;20990;-58
2022/07/04 01:04:34;;;;;;;2.67;2.47;;;22.30;99.90;;;;;;5072467;28;20448;-57
2022/07/04 01:07:00;;;;;;;2.07;1.97;;;22.00;99.90;;;;;;5072671;28;20491;-56
2022/07/04 01:09:27;;;;;;;2.17;2.07;;;21.90;99.90;;;;;;5072851;28;20717;-57
2022/07/04 01:11:54;;;;;;;1.80;1.70;;;21.90;99.90;;;;;;5072461;28;20483;-57
2022/07/04 01:14:20;;;;;;;2.13;2.03;;;22.00;99.90;;;;;;5072448;28;20538;-56
2022/07/04 01:16:47;;;;;;;3.60;1.90;;;22.00;99.90;;;;;;5072319;28;20861;-57
2022/07/04 01:19:13;;;;;;;2.13;2.03;;;22.10;99.90;;;;;;5072565;28;20453;-57
2022/07/04 01:21:41;;;;;;;1.93;1.83;;;22.00;99.90;;;;;;5075840;28;20489;-57
2022/07/04 01:24:07;;;;;;;2.20;1.87;;;21.90;99.90;;;;;;5076121;28;20458;-57
2022/07/04 01:26:34;;;;;;;2.03;1.93;;;21.70;99.90;;;;;;5076050;28;20811;-57
2022/07/04 01:29:01;;;;;;;2.50;2.30;;;21.60;99.90;;;;;;5075973;28;20447;-56
2022/07/04 01:31:27;;;;;;;2.63;1.90;;;21.50;99.90;;;;;;5075790;28;20895;-57
2022/07/04 01:33:54;;;;;;;2.27;2.17;;;21.50;99.90;;;;;;5076093;28;20504;-56
2022/07/04 01:36:20;;;;;;;4.90;2.10;;;21.40;99.90;;;;;;5075987;28;20546;-56
2022/07/04 01:38:48;;;;;;;1.70;1.60;;;21.50;99.90;;;;;;5075808;28;20447;-57
2022/07/04 01:41:14;;;;;;;1.97;1.87;;;21.70;99.90;;;;;;5075721;28;20837;-57
2022/07/04 01:43:41;;;;;;;1.93;1.83;;;21.80;99.90;;;;;;5075685;28;20536;-57
2022/07/04 01:46:07;;;;;;;5.20;2.50;;;21.90;99.90;;;;;;5075506;28;20453;-57
2022/07/04 01:48:34;;;;;;;2.27;1.90;;;21.80;99.90;;;;;;5076001;28;20449;-57
2022/07/04 01:51:00;;;;;;;2.00;1.80;;;21.90;99.90;;;;;;5075650;28;20813;-57
2022/07/04 01:53:27;;;;;;;2.00;1.90;;;22.00;99.90;;;;;;5075587;28;20534;-57
2022/07/04 01:55:55;;;;;;;2.13;2.03;;;21.90;99.90;;;;;;5075307;28;20547;-58
2022/07/04 01:58:21;;;;;;;5.17;1.80;;;21.90;99.90;;;;;;5075412;28;20451;-58
2022/07/04 02:03:32;;;;;;;2.40;1.80;;;22.00;99.90;;;;;;5075363;28;20431;-56
2022/07/04 02:05:59;;;;;;;2.90;1.60;;;22.00;99.90;;;;;;5075193;28;20968;-58
2022/07/04 02:09:14;;;;;;;3.00;1.67;;;22.00;99.90;;;;;;5075381;28;20930;-58
2022/07/04 02:11:14;;;;;;;1.90;1.80;;;21.90;99.90;;;;;;5075056;28;20458;-57
2022/07/04 02:13:39;;;;;;;1.63;1.53;;;21.90;99.90;;;;;;5075401;28;20447;-57
2022/07/04 02:16:06;;;;;;;2.20;2.10;;;21.90;99.90;;;;;;5075281;28;20534;-57
2022/07/04 02:18:33;;;;;;;1.80;1.53;;;21.80;99.90;;;;;;5075151;28;20578;-57
2022/07/04 02:20:59;;;;;;;2.27;2.00;;;21.80;99.90;;;;;;5074940;28;20444;-58
2022/07/04 02:23:26;;;;;;;2.03;1.87;;;21.80;99.90;;;;;;5074847;28;20473;-58
2022/07/04 02:25:52;;;;;;;2.23;2.00;;;21.80;99.90;;;;;;5074915;28;20478;-58
2022/07/04 02:28:20;;;;;;;2.07;1.97;;;21.80;99.90;;;;;;5074954;28;20543;-58
2022/07/04 02:30:47;;;;;;;2.20;1.97;;;21.80;99.90;;;;;;5074933;28;20883;-56
2022/07/04 02:33:13;;;;;;;2.07;1.80;;;21.80;99.90;;;;;;5074091;28;20454;-57
2022/07/04 02:35:40;;;;;;;1.97;1.87;;;21.80;99.90;;;;;;5074725;28;20479;-58
2022/07/04 02:38:06;;;;;;;2.17;2.03;;;21.70;99.90;;;;;;5074600;28;20538;-58
2022/07/04 02:40:33;;;;;;;2.17;2.07;;;21.70;99.90;;;;;;5074844;28;20454;-58
2022/07/04 02:42:59;;;;;;;2.30;2.03;;;21.70;99.90;;;;;;5074672;28;20483;-55
2022/07/04 02:45:27;;;;;;;2.60;2.40;;;21.60;99.90;;;;;;5074584;28;20458;-57
2022/07/04 02:47:54;;;;;;;3.47;2.30;;;21.60;99.90;;;;;;5074806;28;20543;-57
2022/07/04 02:50:20;;;;;;;2.27;2.00;;;21.60;99.90;;;;;;5074471;28;20806;-57
2022/07/04 02:52:47;;;;;;;2.30;2.20;;;21.40;99.90;;;;;;5074330;28;20702;-58
2022/07/04 02:55:13;;;;;;;2.47;2.27;;;21.40;99.90;;;;;;5074276;28;21001;-58
2022/07/04 02:57:40;;;;;;;1.90;1.80;;;21.20;99.90;;;;;;5074397;28;20838;-58
2022/07/04 03:00:07;;;;;;;2.30;2.10;;;21.10;99.90;;;;;;5074290;28;20451;-57
2022/07/04 03:02:35;;;;;;;2.40;2.30;;;21.10;99.90;;;;;;5074135;28;20482;-58
2022/07/04 03:05:01;;;;;;;2.60;2.40;;;21.10;99.90;;;;;;5073977;28;20455;-57
2022/07/04 03:07:28;;;;;;;2.70;2.50;;;21.10;99.90;;;;;;5073945;28;20448;-57
2022/07/04 03:09:54;;;;;;;3.13;2.43;;;21.10;99.90;;;;;;5074166;28;20448;-56
2022/07/04 03:12:21;;;;;;;2.70;2.50;;;21.10;99.90;;;;;;5074058;28;20454;-57
2022/07/04 03:14:47;;;;;;;2.67;2.47;;;21.00;99.90;;;;;;5074144;28;20448;-57
2022/07/04 03:17:14;;;;;;;3.20;3.07;;;20.80;99.90;;;;;;5074502;28;20784;-57
2022/07/04 03:19:42;;;;;;;3.33;2.63;;;20.70;99.90;;;;;;5074193;28;20538;-58
2022/07/04 03:22:08;;;;;;;3.10;2.90;;;20.80;99.90;;;;;;5074122;28;20479;-58
2022/07/04 03:24:35;;;;;;;2.83;2.60;;;20.80;99.90;;;;;;5074257;28;20449;-58
2022/07/04 03:27:01;;;;;;;3.10;2.80;;;20.80;99.90;;;;;;5073762;28;20541;-57
2022/07/04 03:29:28;;;;;;;2.93;2.83;;;20.60;99.90;;;;;;5073695;28;20541;-58
2022/07/04 03:31:54;;;;;;;4.50;4.10;;;20.60;99.90;;;;;;5073526;28;20554;-57
2022/07/04 03:34:21;;;;;;;3.60;3.40;;;20.50;99.90;;;;;;5073463;28;20867;-58
2022/07/04 03:36:48;;;;;;;5.73;3.40;;;20.50;99.90;;;;;;5073680;28;20587;-57
2022/07/04 03:39:15;;;;;;;3.80;3.43;;;20.60;99.90;;;;;;5073407;28;21017;-57
2022/07/04 03:41:41;;;;;;;3.90;3.70;;;20.70;99.90;;;;;;5073362;28;20471;-57
2022/07/04 03:44:08;;;;;;;4.20;3.73;;;20.80;99.90;;;;;;5073397;28;20467;-57
2022/07/04 03:46:34;;;;;;;3.70;3.50;;;20.80;99.90;;;;;;5073575;28;20451;-57
2022/07/04 03:49:01;;;;;;;4.33;3.87;;;20.80;99.90;;;;;;5073138;28;21017;-57
2022/07/04 03:51:27;;;;;;;4.40;4.20;;;20.80;99.90;;;;;;5073381;28;20543;-58
2022/07/04 03:53:55;;;;;;;3.87;3.67;;;20.70;99.90;;;;;;5073339;28;20550;-56
2022/07/04 03:56:21;;;;;;;4.00;3.80;;;20.80;99.90;;;;;;5073318;28;20566;-58
2022/07/04 03:58:48;;;;;;;4.07;3.87;;;20.80;99.90;;;;;;5073355;28;20534;-56
2022/07/04 04:01:16;;;;;;;6.00;5.00;;;20.70;99.90;;;;;;5073247;28;20447;-58
2022/07/04 04:06:26;;;;;;;4.50;4.20;;;20.70;99.90;;;;;;5073197;28;20488;-58
2022/07/04 04:08:54;;;;;;;5.17;4.67;;;20.80;99.90;;;;;;5073173;28;20942;-58
2022/07/04 04:11:21;;;;;;;4.77;4.47;;;20.70;99.90;;;;;;5073110;28;20475;-57
2022/07/04 04:13:47;;;;;;;4.77;4.43;;;20.70;99.90;;;;;;5073089;28;20479;-58
2022/07/04 04:16:14;;;;;;;6.20;5.10;;;20.70;99.90;;;;;;5073185;28;20451;-57
2022/07/04 04:18:41;;;;;;;5.33;4.93;;;20.80;99.90;;;;;;5073047;28;20446;-57
2022/07/04 04:21:07;;;;;;;7.10;5.00;;;20.80;99.90;;;;;;5073121;28;20443;-58
2022/07/04 04:23:34;;;;;;;6.30;5.80;;;20.70;99.90;;;;;;5072813;28;20480;-56
2022/07/04 04:26:01;;;;;;;6.00;5.37;;;20.80;99.90;;;;;;5072871;28;20448;-57
2022/07/04 04:28:28;;;;;;;5.70;5.27;;;20.80;99.90;;;;;;5072732;28;20454;-56
2022/07/04 04:30:54;;;;;;;5.73;5.33;;;20.80;99.90;;;;;;5072968;28;20547;-57
2022/07/04 04:33:21;;;;;;;6.03;5.53;;;20.80;99.90;;;;;;5073020;28;20560;-58
2022/07/04 04:35:47;;;;;;;5.33;4.93;;;20.90;99.90;;;;;;5072899;28;20453;-58
2022/07/04 04:38:14;;;;;;;5.83;5.40;;;21.00;99.90;;;;;;5072910;28;20880;-58
2022/07/04 04:40:40;;;;;;;5.40;5.03;;;21.10;99.90;;;;;;5072692;28;20454;-57
2022/07/04 04:43:08;;;;;;;5.30;4.80;;;21.20;99.90;;;;;;5072502;28;20478;-57
2022/07/04 04:45:35;;;;;;;4.87;4.43;;;21.20;99.90;;;;;;5072856;28;20542;-58
2022/07/04 04:48:01;;;;;;;5.10;4.70;;;21.30;99.90;;;;;;5072571;28;20440;-57
2022/07/04 04:50:27;;;;;;;5.90;5.50;;;21.40;99.90;;;;;;5072823;28;20810;-56
2022/07/04 04:52:54;;;;;;;5.10;4.73;;;21.50;99.90;;;;;;5072543;28;20447;-57
2022/07/04 04:55:21;;;;;;;6.50;6.00;;;21.50;99.90;;;;;;5073894;28;20439;-57
2022/07/04 04:57:48;;;;;;;5.67;5.27;;;21.20;99.90;;;;;;5076257;28;21046;-57
2022/07/04 05:00:16;;;;;;;6.23;5.73;;;21.10;99.90;;;;;;5076610;28;20898;-58
2022/07/04 05:02:43;;;;;;;6.03;5.63;;;21.30;99.90;;;;;;5076482;28;20508;-57
2022/07/04 05:05:09;;;;;;;7.83;7.13;;;21.30;99.90;;;;;;5076473;28;20682;-59
2022/07/04 05:07:36;;;;;;;6.57;5.90;;;21.20;99.90;;;;;;5076354;28;20899;-59
2022/07/04 05:10:04;;;;;;;6.30;5.90;;;21.30;99.90;;;;;;5076094;28;20447;-60
2022/07/04 05:12:30;;;;;;;6.63;6.03;;;21.30;99.90;;;;;;5076127;28;20939;-59
2022/07/04 05:14:57;;;;;;;6.47;6.07;;;21.30;99.90;;;;;;5076388;28;20538;-58
2022/07/04 05:17:25;;;;;;;6.60;5.00;;;21.40;99.90;;;;;;5076082;28;20883;-58
2022/07/04 05:19:51;;;;;;;5.30;4.87;;;21.50;99.90;;;;;;5076222;28;20451;-58
2022/07/04 05:22:18;;;;;;;6.33;5.83;;;21.70;99.90;;;;;;5076058;28;20897;-58
2022/07/04 05:24:45;;;;;;;5.80;5.30;;;21.80;99.90;;;;;;5075913;28;20931;-58
2022/07/04 05:27:11;;;;;;;6.50;5.37;;;22.00;99.90;;;;;;5076333;28;20447;-58
2022/07/04 05:29:38;;;;;;;5.40;5.00;;;22.10;99.90;;;;;;5075943;28;20806;-59
2022/07/04 05:32:05;;;;;;;6.40;5.80;;;22.20;99.90;;;;;;5075838;28;20969;-58
2022/07/04 05:34:33;;;;;;;5.10;4.60;;;22.30;99.90;;;;;;5075762;28;20443;-59
2022/07/04 05:36:59;;;;;;;5.70;5.20;;;22.40;99.90;;;;;;5075728;28;20444;-58
2022/07/04 05:39:26;;;;;;;5.47;4.80;;;22.50;99.90;;;;;;5075673;28;21013;-58
2022/07/04 05:41:52;;;;;;;5.60;5.10;;;22.60;99.90;;;;;;5075744;28;20439;-59
2022/07/04 05:44:19;;;;;;;5.67;5.27;;;22.70;99.90;;;;;;5075622;28;20544;-58
2022/07/04 05:46:45;;;;;;;6.17;5.57;;;22.70;99.90;;;;;;5075631;28;20461;-58
2022/07/04 05:49:12;;;;;;;4.93;4.53;;;22.70;99.90;;;;;;5075915;28;20539;-60
2022/07/04 05:51:40;;;;;;;6.10;5.57;;;22.80;99.90;;;;;;5075556;28;20513;-58
2022/07/04 05:54:06;;;;;;;5.27;4.90;;;22.90;99.90;;;;;;5075344;28;20815;-58
2022/07/04 05:56:33;;;;;;;5.20;4.90;;;22.70;99.90;;;;;;5075287;28;20471;-58
2022/07/04 05:58:59;;;;;;;5.57;5.07;;;22.80;99.90;;;;;;5075260;28;20451;-58
2022/07/04 06:01:26;;;;;;;4.83;4.40;;;22.80;99.90;;;;;;5075323;28;20539;-59
2022/07/04 06:03:52;;;;;;;4.57;4.17;;;22.90;99.90;;;;;;5075162;28;20483;-59
2022/07/04 06:06:19;;;;;;;5.50;5.00;;;23.00;99.90;;;;;;5074209;28;20952;-58
2022/07/04 06:08:47;;;;;;;6.23;5.63;;;23.00;99.90;;;;;;5074722;28;20806;-58
2022/07/04 06:11:14;;;;;;;4.87;4.57;;;23.10;99.90;;;;;;5075185;28;20450;-59
2022/07/04 06:13:41;;;;;;;5.43;5.03;;;23.20;99.90;;;;;;5075060;28;20487;-58
2022/07/04 06:16:07;;;;;;;4.20;3.90;;;23.30;99.90;;;;;;5074947;28;20470;-58
2022/07/04 06:18:33;;;;;;;4.90;4.50;;;23.40;99.90;;;;;;5074865;28;20447;-59
2022/07/04 06:21:00;;;;;;;6.10;5.50;;;23.40;99.90;;;;;;5074718;28;20550;-58
2022/07/04 06:23:27;;;;;;;5.83;5.47;;;23.20;99.90;;;;;;5074918;28;20574;-59
2022/07/04 06:25:55;;;;;;;5.00;4.70;;;23.20;99.90;;;;;;5074998;28;20474;-59
2022/07/04 06:28:21;;;;;;;4.80;4.50;;;23.20;99.90;;;;;;5074817;28;20451;-59
2022/07/04 06:30:48;;;;;;;4.63;4.23;;;23.20;99.90;;;;;;5074754;28;20531;-58
2022/07/04 06:33:14;;;;;;;5.10;4.60;;;23.20;99.90;;;;;;5074610;28;20451;-59
2022/07/04 06:35:54;;;;;;;4.73;4.33;;;23.30;99.90;;;;;;5074464;28;20495;-57
2022/07/04 06:38:22;;;;;;;4.13;3.80;;;23.40;99.90;;;;;;5074770;28;20966;-58
2022/07/04 06:40:50;;;;;;;4.57;3.87;;;23.20;99.90;;;;;;5074472;28;20954;-58
2022/07/04 06:43:18;;;;;;;6.83;4.27;;;23.20;99.90;;;;;;5074483;28;20482;-58
2022/07/04 06:45:44;;;;;;;3.73;3.40;;;23.10;99.90;;;;;;5074443;28;20452;-58
2022/07/04 06:48:11;;;;;;;3.27;2.97;;;23.20;99.90;;;;;;5074164;28;20453;-58
2022/07/04 06:50:38;;;;;;;3.20;3.00;;;23.50;99.90;;;;;;5074417;28;20447;-58
2022/07/04 06:53:06;;;;;;;2.87;2.67;;;23.60;99.90;;;;;;5074392;28;20453;-58
2022/07/04 06:55:33;;;;;;;3.30;2.40;;;23.70;99.90;;;;;;5074286;28;20448;-57
2022/07/04 06:58:00;;;;;;;2.70;2.50;;;23.70;99.90;;;;;;5073911;28;20839;-56
2022/07/04 07:00:30;;;;;;;6.20;2.90;;;23.80;99.90;;;;;;5074070;28;20447;-58
2022/07/04 07:02:57;;;;;;;4.50;3.27;;;23.80;99.90;;;;;;5074208;28;20921;-57
2022/07/04 07:05:24;;;;;;;3.00;2.53;;;23.80;99.90;;;;;;5074020;28;20447;-57
2022/07/04 07:07:50;;;;;;;2.63;2.40;;;23.60;99.90;;;;;;5074046;28;20444;-57
2022/07/04 07:10:17;;;;;;;3.03;1.90;;;23.60;99.90;;;;;;5073854;28;20553;-55
2022/07/04 07:12:44;;;;;;;3.23;2.23;;;23.70;99.90;;;;;;5073715;28;20451;-58
2022/07/04 07:15:11;;;;;;;2.80;2.60;;;23.50;99.90;;;;;;5062579;28;20452;-56
2022/07/04 07:17:39;;;;;;;2.60;2.40;;;23.50;99.90;;;;;;5053530;28;20449;-58
2022/07/04 07:20:06;;;;;;;1.90;1.80;;;23.30;99.90;;;;;;5053754;28;20960;-58
2022/07/04 07:22:33;;;;;;;5.03;1.77;;;23.30;99.90;;;;;;5053658;28;20539;-57
2022/07/04 07:24:59;;;;;;;1.97;1.87;;;23.40;99.90;;;;;;5055309;28;20499;-57
2022/07/04 07:27:26;;;;;;;2.37;1.60;;;23.60;99.90;;;;;;5066635;28;20550;-57
2022/07/04 07:29:53;;;;;;;4.50;1.87;;;23.70;99.90;;;;;;5053496;28;20887;-58
2022/07/04 07:32:19;;;;;;;3.47;1.83;;;23.80;99.90;;;;;;5053652;28;20445;-58
2022/07/04 07:34:47;;;;;;;4.30;1.50;;;23.80;99.90;;;;;;5053591;28;20535;-57
2022/07/04 07:37:13;;;;;;;2.27;1.50;;;23.80;99.90;;;;;;5053483;28;20479;-57
2022/07/04 07:39:40;;;;;;;1.60;1.50;;;23.80;99.90;;;;;;5061975;28;20540;-58
2022/07/04 07:42:06;;;;;;;1.60;1.40;;;23.90;99.90;;;;;;5068914;28;20451;-56
2022/07/04 07:44:33;;;;;;;3.23;1.40;;;24.10;99.90;;;;;;5059633;28;20909;-60
2022/07/04 07:46:59;;;;;;;1.50;1.40;;;24.10;99.90;;;;;;5059433;28;20460;-60
2022/07/04 07:49:26;;;;;;;2.60;1.40;;;24.20;99.90;;;;;;5071781;28;20542;-59
2022/07/04 07:51:55;;;;;;;3.10;1.10;;;24.30;99.90;;;;;;5059030;28;21097;-59
2022/07/04 07:54:21;;;;;;;1.23;1.13;;;24.20;99.90;;;;;;5057498;28;20460;-59
2022/07/04 07:56:48;;;;;;;2.70;1.30;;;24.40;99.90;;;;;;5065386;28;20638;-58
2022/07/04 07:59:14;;;;;;;4.30;1.30;;;24.50;99.90;;;;;;5062642;28;20542;-59
2022/07/04 08:01:41;;;;;;;3.43;1.10;;;24.50;99.90;;;;;;5072631;28;21116;-61
2022/07/04 08:06:51;;;;;;;4.60;1.40;;;24.80;99.90;;;;;;5059272;28;20927;-60
2022/07/04 08:09:19;;;;;;;2.13;1.17;;;24.70;99.90;;;;;;5067313;28;20903;-61
2022/07/04 08:11:46;;;;;;;1.20;1.10;;;24.90;99.90;;;;;;5053169;28;20446;-60
2022/07/04 08:14:13;;;;;;;1.87;1.13;;;25.10;99.90;;;;;;5060431;28;20451;-59
2022/07/04 08:16:40;;;;;;;3.23;1.33;;;25.30;99.90;;;;;;5072684;28;20542;-59
2022/07/04 08:19:06;;;;;;;3.77;1.30;;;25.40;99.90;;;;;;5071072;28;20455;-60
2022/07/04 08:21:33;;;;;;;1.20;1.10;;;25.50;99.90;;;;;;5071628;28;20456;-60
2022/07/04 08:24:00;;;;;;;1.53;1.20;;;25.50;99.90;;;;;;5072571;28;20569;-59
2022/07/04 08:26:27;;;;;;;1.53;1.30;;;25.60;99.90;;;;;;5070940;28;20810;-60
2022/07/04 08:28:57;;;;;;;3.23;0.97;;;25.70;99.90;;;;;;5071742;28;20451;-59
2022/07/04 08:31:23;;;;;;;2.43;1.20;;;25.70;99.90;;;;;;5069609;28;20534;-59
2022/07/04 08:33:50;;;;;;;1.60;1.33;;;25.60;99.90;;;;;;5072510;28;20479;-58
2022/07/04 08:36:16;;;;;;;4.20;1.20;;;25.10;99.90;;;;;;5071407;28;20542;-58
2022/07/04 08:38:43;;;;;;;1.90;1.10;;;25.00;99.90;;;;;;5071702;28;20448;-58
2022/07/04 08:41:09;;;;;;;1.23;1.13;;;24.80;99.90;;;;;;5066839;28;20542;-62
2022/07/04 08:43:38;;;;;;;1.53;1.00;;;24.80;99.90;;;;;;5069539;28;20475;-62
2022/07/04 08:46:06;;;;;;;1.00;0.90;;;24.90;99.90;;;;;;5061849;28;20538;-62
2022/07/04 08:48:33;;;;;;;3.13;1.10;;;25.00;99.90;;;;;;5072192;28;20559;-58
2022/07/04 08:51:10;;;;;;;1.30;1.10;;;25.10;99.90;;;;;;5066715;28;20565;-59
2022/07/04 08:53:39;;;;;;;1.30;1.20;;;25.20;99.90;;;;;;5071831;28;20917;-60
2022/07/04 08:58:55;;;;;;;0.90;0.70;;;25.50;99.90;;;;;;5060704;28;20434;-63
2022/07/04 09:01:23;;;;;;;1.67;1.17;;;25.60;99.90;;;;;;5083218;28;20446;-62
2022/07/04 09:03:51;;;;;;;2.47;1.10;;;25.40;99.90;;;;;;5071942;28;20822;-58
2022/07/04 09:06:17;;;;;;;2.83;1.03;;;25.40;99.90;;;;;;5066485;28;20459;-60
2022/07/04 09:08:44;;;;;;;1.30;1.20;;;24.70;99.90;;;;;;5071557;28;20444;-62
2022/07/04 09:11:12;;;;;;;1.63;0.90;;;25.10;99.90;;;;;;5069159;28;20819;-61
2022/07/04 09:13:39;;;;;;;1.10;0.90;;;25.30;99.90;;;;;;5061901;28;20518;-60
2022/07/04 09:16:07;;;;;;;1.70;1.30;;;25.50;99.90;;;;;;5066363;28;20453;-61
2022/07/04 09:18:35;;;;;;;3.03;0.90;;;25.70;99.90;;;;;;5060147;28;20452;-60
2022/07/04 09:21:03;;;;;;;0.90;0.90;;;25.50;99.90;;;;;;5056469;28;20452;-59
2022/07/04 09:23:31;;;;;;;3.23;0.90;;;25.60;99.90;;;;;;5051939;28;20511;-61
2022/07/04 09:26:13;;;;;;;1.30;1.00;;;25.80;99.90;;;;;;5067746;28;20477;-53
2022/07/04 09:28:41;;;;;;;3.77;1.07;;;25.80;99.90;;;;;;5068794;28;20452;-60
2022/07/04 09:31:16;;;;;;;0.80;0.80;;;25.90;99.90;;;;;;5071195;28;20447;-60
2022/07/04 09:33:52;;;;;;;2.40;1.20;;;25.50;99.90;;;;;;5065159;28;20451;-64
2022/07/04 09:36:20;;;;;;;2.50;1.10;;;25.70;99.90;;;;;;5062484;28;20451;-60
2022/07/04 09:39:04;;;;;;;1.60;0.97;;;26.00;99.90;;;;;;5072185;28;21017;-62
2022/07/04 09:41:34;;;;;;;2.10;0.90;;;26.10;99.90;;;;;;5060801;28;20812;-63
2022/07/04 09:44:04;;;;;;;1.40;1.00;;;26.30;99.90;;;;;;5072262;28;20867;-60
2022/07/04 09:46:33;;;;;;;1.00;0.90;;;26.50;99.90;;;;;;5058272;28;20215;-61
2022/07/04 09:49:00;;;;;;;0.97;0.80;;;26.60;99.90;;;;;;5073844;28;20853;-59
2022/07/04 09:51:41;;;;;;;1.70;1.20;;;26.70;99.90;;;;;;5064133;28;20858;-59
2022/07/04 09:54:19;;;;;;;1.50;1.10;;;26.90;99.90;;;;;;5075132;28;20538;-58
2022/07/04 09:56:47;;;;;;;1.03;0.80;;;27.00;99.90;;;;;;5073784;28;20510;-59
2022/07/04 09:59:14;;;;;;;2.25;1.00;;;27.10;99.90;;;;;;5056320;28;20823;-58
2022/07/04 10:01:43;;;;;;;1.73;1.00;;;27.10;99.90;;;;;;5055111;28;20448;-59
2022/07/04 10:04:11;;;;;;;1.83;1.00;;;27.20;99.00;;;;;;5054432;28;20471;-59
2022/07/04 10:06:39;;;;;;;1.27;0.93;;;27.30;98.50;;;;;;5073826;28;20239;-62
2022/07/04 10:09:11;;;;;;;1.37;0.90;;;27.50;98.80;;;;;;5073291;28;20547;-60
2022/07/04 10:11:39;;;;;;;1.03;0.83;;;27.60;96.70;;;;;;5063991;28;20455;-61
2022/07/04 10:14:08;;;;;;;2.63;1.10;;;27.60;97.00;;;;;;5074989;28;20455;-60
2022/07/04 10:16:35;;;;;;;1.80;1.10;;;27.60;97.60;;;;;;5062920;28;20451;-63
2022/07/04 10:19:03;;;;;;;1.30;0.77;;;27.60;97.60;;;;;;5073672;28;20452;-63
2022/07/04 10:21:31;;;;;;;3.90;1.00;;;27.70;97.60;;;;;;5058724;28;20887;-62
2022/07/04 10:23:57;;;;;;;2.25;0.80;;;27.70;97.50;;;;;;5061911;28;20349;-63
2022/07/04 10:26:24;;;;;;;1.30;1.00;;;27.70;97.10;;;;;;5058494;28;20185;-60
2022/07/04 10:28:52;;;;;;;1.00;1.00;;;27.90;95.90;;;;;;5065859;28;20455;-59
2022/07/04 10:31:20;;;;;;;2.20;0.90;;;27.90;96.20;;;;;;5068692;28;20458;-59
2022/07/04 10:33:48;;;;;;;4.73;1.10;;;28.00;96.10;;;;;;5071518;28;20486;-60
2022/07/04 10:36:17;;;;;;;4.60;1.37;;;28.00;95.80;;;;;;5061939;28;20540;-60
2022/07/04 10:38:53;;;;;;;1.63;0.90;;;27.80;95.70;;;;;;5072941;28;20532;-65
2022/07/04 10:41:21;;;;;;;1.20;1.00;;;27.80;95.20;;;;;;5071312;28;20542;-65
2022/07/04 10:44:00;;;;;;;1.57;0.93;;;27.90;94.20;;;;;;5087818;28;20478;-65
2022/07/04 10:46:32;;;;;;;2.33;1.17;;;27.90;94.70;;;;;;5062793;28;20521;-65
2022/07/04 10:49:00;;;;;;;1.53;1.10;;;27.90;95.00;;;;;;5068138;28;20456;-66
2022/07/04 10:51:41;;;;;;;2.63;1.00;;;28.00;94.30;;;;;;5072640;28;20973;-64
2022/07/04 10:54:10;;;;;;;1.53;1.20;;;28.20;94.50;;;;;;5060000;28;20454;-65
2022/07/04 10:56:45;;;;;;;2.07;0.90;;;28.40;93.50;;;;;;5072423;28;20885;-65
2022/07/04 10:59:14;;;;;;;1.47;1.00;;;28.50;93.40;;;;;;5067727;28;20498;-60
2022/07/04 11:01:49;;;;;;;1.97;0.97;;;28.70;92.90;;;;;;5066016;28;20542;-60
2022/07/04 11:04:45;;;;;;;1.67;0.90;;;28.80;92.10;;;;;;5069069;28;21066;-59
2022/07/04 11:07:13;;;;;;;3.27;0.90;;;28.90;91.50;;;;;;5065102;28;20472;-61
2022/07/04 11:09:39;;;;;;;1.00;0.90;;;28.90;90.30;;;;;;5073285;28;20458;-59
2022/07/04 11:12:06;;;;;;;1.63;0.90;;;28.90;91.00;;;;;;5072826;28;20482;-59
2022/07/04 11:14:37;;;;;;;1.27;0.95;;;29.00;91.40;;;;;;5068933;28;20458;-60
2022/07/04 11:17:04;;;;;;;1.07;0.80;;;29.00;91.70;;;;;;5053454;28;20293;-61
2022/07/04 11:19:31;;;;;;;2.22;0.90;;;28.70;92.20;;;;;;5061550;28;20460;-59
2022/07/04 11:21:58;;;;;;;1.00;0.80;;;28.70;91.60;;;;;;5080096;28;20324;-59
2022/07/04 11:24:27;;;;;;;1.53;1.07;;;28.90;90.60;;;;;;5069329;28;20471;-60
2022/07/04 11:26:53;;;;;;;1.70;0.83;;;28.50;91.80;;;;;;5070638;28;20938;-61
2022/07/04 11:29:20;;;;;;;3.53;0.87;;;28.70;91.20;;;;;;5070562;28;20462;-59
2022/07/04 11:31:48;;;;;;;1.13;0.80;;;28.60;91.00;;;;;;5068175;28;20458;-60
2022/07/04 11:34:15;;;;;;;1.00;0.90;;;28.70;90.60;;;;;;5065157;28;20491;-60
2022/07/04 11:36:44;;;;;;;1.17;0.80;;;28.80;90.10;;;;;;5058691;28;21086;-61
2022/07/04 11:39:12;;;;;;;1.80;1.10;;;28.90;90.20;;;;;;5070000;28;20451;-60
2022/07/04 11:47:15;;;;;;;1.90;0.90;;;28.50;89.90;;;;;;5063568;28;20451;-60
2022/07/04 11:49:47;;;;;;;0.97;0.87;;;28.60;90.00;;;;;;5052461;28;20506;-60
2022/07/04 11:52:15;;;;;;;2.30;1.00;;;28.50;89.30;;;;;;5052830;28;20484;-60
2022/07/04 11:54:42;;;;;;;1.90;1.20;;;28.20;89.60;;;;;;5053108;28;20539;-60
2022/07/04 11:57:13;;;;;;;2.63;1.30;;;28.00;90.00;;;;;;5052799;28;20503;-60
2022/07/04 11:59:39;;;;;;;1.30;1.20;;;27.80;90.40;;;;;;5052928;28;20491;-60
2022/07/04 12:02:14;;;;;;;1.60;1.33;;;27.60;89.80;;;;;;5062099;28;20533;-60
2022/07/04 12:04:41;;;;;;;1.00;0.90;;;27.40;90.40;;;;;;5082430;28;20469;-60
2022/07/04 12:07:16;;;;;;;2.37;1.10;;;27.30;91.30;;;;;;5073704;28;20479;-61
2022/07/04 12:09:44;;;;;;;1.93;1.00;;;27.30;90.90;;;;;;5072794;28;20439;-59
2022/07/04 12:12:13;;;;;;;1.83;1.10;;;27.20;90.90;;;;;;5072769;28;20447;-59
2022/07/04 12:14:40;;;;;;;2.27;1.07;;;27.10;91.20;;;;;;5072766;28;20451;-59
2022/07/04 12:17:14;;;;;;;2.40;1.20;;;27.10;91.40;;;;;;5072569;28;20513;-60
2022/07/04 12:19:54;;;;;;;2.13;1.20;;;27.40;91.30;;;;;;5072836;28;20814;-59
2022/07/04 12:22:32;;;;;;;2.00;1.00;;;27.60;90.80;;;;;;5072689;28;20497;-60
2022/07/04 12:25:00;;;;;;;4.97;1.40;;;27.80;91.00;;;;;;5072318;28;20996;-60
2022/07/04 12:27:28;;;;;;;1.20;1.10;;;28.00;90.60;;;;;;5071930;28;20530;-60
2022/07/04 12:29:57;;;;;;;2.30;1.03;;;28.10;90.10;;;;;;5072298;28;20562;-60
2022/07/04 12:32:24;;;;;;;1.80;1.10;;;28.30;90.00;;;;;;5072555;28;20450;-60
2022/07/04 12:34:50;;;;;;;1.43;0.90;;;28.50;89.60;;;;;;5072631;28;20455;-60
2022/07/04 12:37:17;;;;;;;1.67;1.10;;;28.40;89.40;;;;;;5072493;28;20454;-59
2022/07/04 12:39:45;;;;;;;2.30;1.10;;;28.40;89.50;;;;;;5072511;28;20605;-60
2022/07/04 12:42:13;;;;;;;2.20;1.20;;;28.20;89.00;;;;;;5072123;28;20452;-60
2022/07/04 12:44:42;;;;;;;3.10;1.00;;;28.10;88.70;;;;;;5072478;28;20528;-61
2022/07/04 12:47:10;;;;;;;9.50;1.67;;;28.30;90.10;;;;;;5072589;28;20479;-61
2022/07/04 12:49:37;;;;;;;1.47;0.97;;;28.40;88.10;;;;;;5072372;28;20977;-61
2022/07/04 12:52:08;;;;;;;1.07;0.93;;;28.40;87.50;;;;;;5072465;28;20458;-61
2022/07/04 12:54:36;;;;;;;3.93;1.40;;;28.50;87.40;;;;;;5072099;28;20879;-62
2022/07/04 12:57:08;;;;;;;1.30;0.90;;;28.50;89.10;;;;;;5072122;28;20487;-60
2022/07/04 12:59:34;;;;;;;1.57;1.27;;;28.60;89.40;;;;;;5072404;28;20546;-61
2022/07/04 13:02:03;;;;;;;1.63;1.53;;;28.50;87.40;;;;;;5072443;28;20457;-61
2022/07/04 13:04:30;;;;;;;4.40;1.23;;;28.50;86.20;;;;;;5072156;28;20580;-61
2022/07/04 13:06:59;;;;;;;3.97;1.50;;;28.60;85.60;;;;;;5072223;28;20448;-61